»·PEaware :: N2442P KPSP-KWJF

N2442P :: KPSP-KWJF

FLIGHT INFORMATION

Flight Status: Arrived
Operator: Privately registered:
United States
More flights under this callsign
Pilot: Ken Q. (14290)
Aircraft: MOONEY M-20K/M ENCORE BRAVO
(M20T)
More flights by this aircraft type
Origin: KPSP Palm Springs Intl
United States
Destination: KWJF Gen Fox
United States
More flights between these airports :: More routes between these airports
Route: UCARA VP528 CAJON VPLCP MAJEK PMD
File this flight plan on PilotEdge
Remarks: Via Cajon Pass
Altitude:
(Current/Filed)
8,500ft
Speed:
(Current/Filed)
175kts
Departed: 22-Dec-20 01:14 PM
Arrived: 22-Dec-20 01:57 PM
Distance/Time
Traveled:
0nm/0:43
Distance/Time
To Go:
Arrived

Flight Plot

Page will automatically refresh every two minutes.

Flight plan parsing failed; only flown route is shown


Map Options




Map Legend


Flown Route
Filed Route
Departure Airport
Arrival Airport
Navaid (VOR, NDB)
Fix

Horizontal Profiles

Position Reports

Time Latitude Longitude Heading Altitude Ground
Speed
22-Dec-20 12:35 33.826397 -116.509350 270 480ft 0kts
22-Dec-20 12:35 33.826397 -116.509350 270 480ft 0kts
22-Dec-20 12:36 33.826397 -116.509350 270 480ft 0kts
22-Dec-20 12:37 33.826397 -116.509350 270 480ft 0kts
22-Dec-20 12:38 33.826397 -116.509350 270 480ft 0kts
22-Dec-20 12:39 33.826397 -116.509350 270 480ft 0kts
22-Dec-20 12:40 33.826397 -116.509350 270 480ft 0kts
22-Dec-20 12:41 33.826397 -116.509350 270 480ft 0kts
22-Dec-20 12:42 33.826397 -116.509350 270 480ft 0kts
22-Dec-20 12:43 33.826397 -116.509350 270 480ft 0kts
22-Dec-20 12:44 33.826397 -116.509350 270 480ft 0kts
22-Dec-20 12:45 33.826397 -116.509350 270 480ft 0kts
22-Dec-20 12:46 33.826397 -116.509350 270 480ft 0kts
22-Dec-20 12:47 33.826397 -116.509350 270 480ft 0kts
22-Dec-20 12:48 33.826397 -116.509350 270 480ft 0kts
22-Dec-20 12:49 33.826397 -116.509350 270 480ft 0kts
22-Dec-20 12:50 33.826397 -116.509350 270 480ft 0kts
22-Dec-20 12:51 33.826397 -116.509350 270 480ft 0kts
22-Dec-20 12:53 33.826397 -116.509350 270 480ft 0kts
22-Dec-20 12:53 33.826397 -116.509350 270 480ft 0kts
22-Dec-20 12:54 33.826397 -116.509350 270 480ft 0kts
22-Dec-20 12:55 33.826397 -116.509350 270 480ft 0kts
22-Dec-20 12:56 33.826397 -116.509350 270 480ft 0kts
22-Dec-20 12:57 33.826397 -116.509351 270 480ft 0kts
22-Dec-20 12:58 33.826397 -116.509352 270 480ft 0kts
22-Dec-20 12:59 33.826397 -116.509353 270 480ft 0kts
22-Dec-20 13:00 33.826397 -116.509354 270 480ft 0kts
22-Dec-20 13:01 33.826397 -116.509355 270 480ft 0kts
22-Dec-20 13:02 33.826397 -116.509355 270 480ft 0kts
22-Dec-20 13:03 33.826397 -116.509356 270 480ft 0kts
22-Dec-20 13:04 33.826397 -116.509357 270 480ft 0kts
22-Dec-20 13:05 33.825460 -116.508744 103 480ft 9kts
22-Dec-20 13:06 33.824724 -116.505317 143 480ft 9kts
22-Dec-20 13:07 33.821108 -116.502102 144 480ft 20kts
22-Dec-20 13:08 33.818098 -116.499444 100 480ft 0kts
22-Dec-20 13:09 33.818097 -116.499437 99 480ft 0kts
22-Dec-20 13:10 33.818214 -116.498855 39 480ft 8kts
22-Dec-20 13:11 33.818273 -116.498793 44 480ft 0kts
22-Dec-20 13:12 33.818273 -116.498792 44 480ft 0kts
22-Dec-20 13:13 33.820878 -116.499840 323 480ft 52kts
22-Dec-20 13:14 33.843837 -116.520292 322 891ft 123kts
22-Dec-20 13:15 33.874836 -116.542957 332 1775ft 135kts
22-Dec-20 13:16 33.907570 -116.565937 304 2687ft 136kts
22-Dec-20 13:17 33.914637 -116.609219 276 3596ft 128kts
22-Dec-20 13:18 33.919004 -116.652203 274 4378ft 130kts
22-Dec-20 13:19 33.921715 -116.695204 272 5084ft 129kts
22-Dec-20 13:20 33.923576 -116.736260 272 5742ft 138kts
22-Dec-20 13:21 33.925607 -116.783101 272 6447ft 140kts
22-Dec-20 13:22 33.927387 -116.830428 272 7148ft 141kts
22-Dec-20 13:23 33.937803 -116.875522 292 7851ft 141kts
22-Dec-20 13:24 33.954025 -116.920336 292 8361ft 147kts
22-Dec-20 13:25 33.970906 -116.967543 292 8523ft 159kts
22-Dec-20 13:26 33.988730 -117.017766 292 8524ft 165kts
22-Dec-20 13:27 34.006990 -117.069185 292 8528ft 167kts
22-Dec-20 13:28 34.025557 -117.121431 292 8520ft 169kts
22-Dec-20 13:29 34.046204 -117.172821 301 8518ft 170kts
22-Dec-20 13:30 34.072670 -117.220379 302 8512ft 170kts
22-Dec-20 13:31 34.096523 -117.269416 297 8515ft 169kts
22-Dec-20 13:32 34.130379 -117.310123 316 8516ft 172kts
22-Dec-20 13:33 34.167260 -117.347373 318 8514ft 171kts
22-Dec-20 13:34 34.204380 -117.383243 318 8522ft 170kts
22-Dec-20 13:35 34.241846 -117.419464 319 8510ft 172kts
22-Dec-20 13:36 34.281697 -117.451597 324 8513ft 172kts
22-Dec-20 13:37 34.322463 -117.482767 324 8510ft 172kts
22-Dec-20 13:38 34.363055 -117.513783 324 8512ft 171kts
22-Dec-20 13:39 34.396208 -117.553267 299 8514ft 168kts
22-Dec-20 13:40 34.419911 -117.603087 298 8513ft 169kts
22-Dec-20 13:41 34.442888 -117.651618 298 8246ft 158kts
22-Dec-20 13:42 34.465459 -117.699259 298 7757ft 168kts
22-Dec-20 13:43 34.489172 -117.749390 298 7256ft 172kts
22-Dec-20 13:44 34.512932 -117.799524 298 6752ft 171kts
22-Dec-20 13:45 34.543269 -117.843851 313 6253ft 171kts
22-Dec-20 13:46 34.577272 -117.884351 313 5754ft 171kts
22-Dec-20 13:47 34.608803 -117.919713 315 5304ft 167kts
22-Dec-20 13:48 34.644731 -117.954885 318 4802ft 160kts
22-Dec-20 13:49 34.679721 -117.985900 318 4295ft 152kts
22-Dec-20 13:50 34.713834 -118.015949 316 3796ft 150kts
22-Dec-20 13:51 34.729009 -118.059690 289 3493ft 135kts
22-Dec-20 13:52 34.742824 -118.099660 290 3495ft 123kts
22-Dec-20 13:53 34.755252 -118.138274 284 3237ft 112kts
22-Dec-20 13:54 34.754248 -118.168592 255 2807ft 87kts
22-Dec-20 13:55 34.747541 -118.194047 258 2504ft 74kts
22-Dec-20 13:56 34.742675 -118.212785 247 2351ft 20kts
22-Dec-20 13:58 34.741367 -118.214705 209 2351ft 0kts
22-Dec-20 13:59 34.739796 -118.216443 250 2351ft 10kts
22-Dec-20 14:00 34.739223 -118.216667 163 2351ft 0kts
22-Dec-20 14:01 34.739223 -118.216667 163 2351ft 0kts
22-Dec-20 14:02 33.826397 -116.509350 270 480ft 0kts

Navigation Log

Ident Type
Flight plan parsing failed, navigation log unavailable